createdAt,value
2018-07-25T00:00:12.767Z,0
2018-07-25T00:01:12.769Z,0
2018-07-25T00:02:12.837Z,0
2018-07-25T00:03:12.835Z,0
2018-07-25T00:04:12.864Z,0
2018-07-25T00:05:12.839Z,0
2018-07-25T00:06:12.766Z,0
2018-07-25T00:07:12.713Z,0
2018-07-25T00:08:12.750Z,0
2018-07-25T00:09:12.812Z,0
2018-07-25T00:10:12.815Z,0
2018-07-25T00:11:12.775Z,0
2018-07-25T00:12:12.849Z,0
2018-07-25T00:13:12.814Z,0
2018-07-25T00:14:12.789Z,0
2018-07-25T00:15:12.818Z,0
2018-07-25T00:16:12.771Z,0
2018-07-25T00:17:12.816Z,0
2018-07-25T00:18:12.757Z,0
2018-07-25T00:19:12.825Z,0
2018-07-25T00:20:12.848Z,0
2018-07-25T00:21:12.860Z,0
2018-07-25T00:22:12.844Z,0
2018-07-25T00:23:12.798Z,0
2018-07-25T00:24:12.856Z,0
2018-07-25T00:25:12.746Z,0
2018-07-25T00:26:12.723Z,0
2018-07-25T00:27:12.826Z,0
2018-07-25T00:28:12.853Z,0
2018-07-25T00:29:12.803Z,0
2018-07-25T00:30:12.727Z,0
2018-07-25T00:31:12.795Z,0
2018-07-25T00:32:12.807Z,0
2018-07-25T00:33:12.753Z,0
2018-07-25T00:34:12.753Z,0
2018-07-25T00:35:12.865Z,0
2018-07-25T00:36:12.761Z,0
2018-07-25T00:37:12.829Z,0
2018-07-25T00:38:12.792Z,0
2018-07-25T00:39:12.735Z,0
2018-07-25T00:40:12.833Z,0
2018-07-25T00:41:12.759Z,0
2018-07-25T00:42:12.843Z,0
2018-07-25T00:43:12.861Z,0
2018-07-25T00:44:12.805Z,0
2018-07-25T00:45:12.872Z,0
2018-07-25T00:46:12.761Z,0
2018-07-25T00:47:12.880Z,0
2018-07-25T00:48:12.840Z,0
2018-07-25T00:49:12.808Z,0
2018-07-25T00:50:12.840Z,0
2018-07-25T00:51:12.740Z,0
2018-07-25T00:52:12.878Z,0
2018-07-25T00:53:12.874Z,0
2018-07-25T00:54:12.852Z,0
2018-07-25T00:55:12.818Z,0
2018-07-25T00:56:12.883Z,0
2018-07-25T00:57:12.878Z,0
2018-07-25T00:58:12.873Z,0
2018-07-25T00:59:12.880Z,0
2018-07-25T01:00:12.847Z,0
2018-07-25T01:01:12.879Z,0
2018-07-25T01:02:12.823Z,0
2018-07-25T01:03:12.815Z,0
2018-07-25T01:04:12.800Z,0
2018-07-25T01:05:12.784Z,0
2018-07-25T01:06:12.787Z,0
2018-07-25T01:07:12.786Z,0
2018-07-25T01:08:12.784Z,0
2018-07-25T01:09:12.789Z,0
2018-07-25T01:10:12.853Z,0
2018-07-25T01:11:12.908Z,0
2018-07-25T01:12:12.863Z,0
2018-07-25T01:13:12.859Z,0
2018-07-25T01:14:12.744Z,0
2018-07-25T01:15:12.816Z,0
2018-07-25T01:16:12.862Z,0
2018-07-25T01:17:12.863Z,0
2018-07-25T01:18:12.790Z,0
2018-07-25T01:19:12.859Z,0
2018-07-25T01:20:12.799Z,0
2018-07-25T01:21:12.863Z,0
2018-07-25T01:22:12.801Z,0
2018-07-25T01:23:12.862Z,0
2018-07-25T01:24:12.867Z,0
2018-07-25T01:25:12.791Z,0
2018-07-25T01:26:12.835Z,0
2018-07-25T01:27:12.770Z,0
2018-07-25T01:28:12.832Z,0
2018-07-25T01:29:12.839Z,0
2018-07-25T01:30:12.902Z,0
2018-07-25T01:31:12.843Z,0
2018-07-25T01:32:12.836Z,0
2018-07-25T01:33:12.913Z,0
2018-07-25T01:34:12.790Z,0
2018-07-25T01:35:12.812Z,0
2018-07-25T01:36:12.965Z,0
2018-07-25T01:37:12.899Z,0
2018-07-25T01:38:12.777Z,0
2018-07-25T01:39:12.813Z,0
2018-07-25T01:40:12.778Z,0
2018-07-25T01:41:12.879Z,0
2018-07-25T01:42:12.904Z,0
2018-07-25T01:43:12.816Z,0
2018-07-25T01:44:12.880Z,0
2018-07-25T01:45:12.813Z,0
2018-07-25T01:46:12.838Z,0
2018-07-25T01:47:12.812Z,0
2018-07-25T01:48:12.813Z,0
2018-07-25T01:49:12.887Z,0
2018-07-25T01:50:12.883Z,0
2018-07-25T01:51:12.820Z,0
2018-07-25T01:52:12.818Z,0
2018-07-25T01:53:12.901Z,0
2018-07-25T01:54:12.889Z,0
2018-07-25T01:55:12.837Z,0
2018-07-25T01:56:12.911Z,0
2018-07-25T01:57:12.783Z,0
2018-07-25T01:58:12.851Z,0
2018-07-25T01:59:12.895Z,0
2018-07-25T02:00:12.864Z,0
2018-07-25T02:01:12.923Z,0
2018-07-25T02:02:12.923Z,0
2018-07-25T02:03:12.894Z,0
2018-07-25T02:04:12.890Z,0
2018-07-25T02:05:12.812Z,0
2018-07-25T02:06:12.924Z,0
2018-07-25T02:07:12.861Z,0
2018-07-25T02:08:12.915Z,0
2018-07-25T02:09:12.889Z,0
2018-07-25T02:10:12.872Z,0
2018-07-25T02:11:12.928Z,0
2018-07-25T02:12:12.941Z,0
2018-07-25T02:13:12.937Z,0
2018-07-25T02:14:12.805Z,0
2018-07-25T02:15:12.862Z,0
2018-07-25T02:16:12.932Z,0
2018-07-25T02:17:12.935Z,0
2018-07-25T02:18:12.805Z,0
2018-07-25T02:19:12.839Z,0
2018-07-25T02:20:12.927Z,0
2018-07-25T02:21:12.941Z,0
2018-07-25T02:22:12.832Z,0
2018-07-25T02:23:12.937Z,0
2018-07-25T02:24:12.825Z,0
2018-07-25T02:25:12.896Z,0
2018-07-25T02:26:12.825Z,0
2018-07-25T02:27:12.781Z,0
2018-07-25T02:28:12.782Z,0
2018-07-25T02:29:12.817Z,0
2018-07-25T02:30:12.933Z,0
2018-07-25T02:31:12.788Z,0
2018-07-25T02:32:12.908Z,0
2018-07-25T02:33:12.815Z,0
2018-07-25T02:34:12.783Z,0
2018-07-25T02:35:12.910Z,0
2018-07-25T02:36:12.913Z,0
2018-07-25T02:37:12.914Z,0
2018-07-25T02:38:12.840Z,0
2018-07-25T02:39:12.915Z,0
2018-07-25T02:40:12.861Z,0
2018-07-25T02:41:12.875Z,0
2018-07-25T02:42:12.840Z,0
2018-07-25T02:43:12.916Z,0
2018-07-25T02:44:12.848Z,0
2018-07-25T02:45:12.790Z,4
2018-07-25T02:46:12.788Z,4
2018-07-25T02:47:12.875Z,4
2018-07-25T02:48:12.903Z,4
2018-07-25T02:49:12.796Z,0
2018-07-25T02:50:12.789Z,4
2018-07-25T02:51:12.876Z,4
2018-07-25T02:52:12.914Z,4
2018-07-25T02:53:12.887Z,4
2018-07-25T02:54:12.903Z,4
2018-07-25T02:55:12.965Z,8
2018-07-25T02:56:12.932Z,8
2018-07-25T02:57:12.865Z,12
2018-07-25T02:58:12.932Z,12
2018-07-25T02:59:12.862Z,12
2018-07-25T03:00:12.867Z,12
2018-07-25T03:01:12.868Z,16
2018-07-25T03:02:12.934Z,20
2018-07-25T03:03:12.936Z,24
2018-07-25T03:04:12.872Z,24
2018-07-25T03:05:12.964Z,28
2018-07-25T03:06:12.928Z,36
2018-07-25T03:07:12.931Z,40
2018-07-25T03:08:12.918Z,44
2018-07-25T03:09:12.936Z,52
2018-07-25T03:10:12.940Z,60
2018-07-25T03:11:12.908Z,72
2018-07-25T03:12:12.966Z,84
2018-07-25T03:13:12.844Z,92
2018-07-25T03:14:12.837Z,108
2018-07-25T03:15:12.970Z,120
2018-07-25T03:16:12.921Z,136
2018-07-25T03:17:12.929Z,152
2018-07-25T03:18:12.850Z,172
2018-07-25T03:19:12.950Z,192
2018-07-25T03:20:12.924Z,216
2018-07-25T03:21:12.925Z,244
2018-07-25T03:22:12.947Z,272
2018-07-25T03:23:12.985Z,300
2018-07-25T03:24:12.889Z,336
2018-07-25T03:25:12.878Z,368
2018-07-25T03:26:12.880Z,404
2018-07-25T03:27:12.885Z,448
2018-07-25T03:28:12.880Z,488
2018-07-25T03:29:12.950Z,532
2018-07-25T03:30:12.886Z,580
2018-07-25T03:31:13.027Z,632
2018-07-25T03:32:12.951Z,684
2018-07-25T03:33:12.955Z,740
2018-07-25T03:34:12.922Z,796
2018-07-25T03:35:12.955Z,852
2018-07-25T03:36:12.957Z,916
2018-07-25T03:37:12.852Z,984
2018-07-25T03:38:12.964Z,1064
2018-07-25T03:39:12.889Z,1144
2018-07-25T03:40:12.957Z,1224
2018-07-25T03:41:12.890Z,1316
2018-07-25T03:42:12.966Z,1404
2018-07-25T03:43:12.890Z,1500
2018-07-25T03:44:12.914Z,1600
2018-07-25T03:45:12.877Z,1700
2018-07-25T03:46:12.916Z,1804
2018-07-25T03:47:12.964Z,1908
2018-07-25T03:48:12.969Z,2016
2018-07-25T03:49:12.981Z,2128
2018-07-25T03:50:12.870Z,2232
2018-07-25T03:51:12.921Z,2352
2018-07-25T03:52:12.883Z,2472
2018-07-25T03:53:12.989Z,2588
2018-07-25T03:54:12.868Z,2708
2018-07-25T03:55:12.985Z,2832
2018-07-25T03:56:12.983Z,2952
2018-07-25T03:57:12.942Z,3080
2018-07-25T03:58:12.950Z,3204
2018-07-25T03:59:12.873Z,3336
2018-07-25T04:00:12.996Z,3464
2018-07-25T04:01:13.005Z,3600
2018-07-25T04:02:12.935Z,3736
2018-07-25T04:03:12.934Z,3872
2018-07-25T04:04:12.870Z,4004
2018-07-25T04:05:13.009Z,4144
2018-07-25T04:06:12.949Z,4280
2018-07-25T04:07:12.988Z,4408
2018-07-25T04:08:12.992Z,4540
2018-07-25T04:09:12.945Z,4676
2018-07-25T04:10:12.898Z,4804
2018-07-25T04:11:12.937Z,4944
2018-07-25T04:12:12.975Z,5072
2018-07-25T04:13:12.992Z,5212
2018-07-25T04:14:13.007Z,5344
2018-07-25T04:15:13.008Z,5488
2018-07-25T04:16:12.938Z,5620
2018-07-25T04:17:12.945Z,5760
2018-07-25T04:18:13.012Z,5888
2018-07-25T04:19:12.923Z,6028
2018-07-25T04:20:12.943Z,6168
2018-07-25T04:21:12.942Z,6308
2018-07-25T04:22:12.882Z,6436
2018-07-25T04:23:12.943Z,6564
2018-07-25T04:24:13.020Z,6704
2018-07-25T04:25:12.980Z,6816
2018-07-25T04:26:12.866Z,6928
2018-07-25T04:27:12.973Z,7044
2018-07-25T04:28:12.941Z,7152
2018-07-25T04:29:12.945Z,7268
2018-07-25T04:30:12.951Z,7380
2018-07-25T04:31:12.986Z,7492
2018-07-25T04:32:12.942Z,7600
2018-07-25T04:33:12.898Z,7708
2018-07-25T04:34:12.985Z,7812
2018-07-25T04:35:12.911Z,7904
2018-07-25T04:36:12.931Z,7992
2018-07-25T04:37:12.995Z,8088
2018-07-25T04:38:13.018Z,8180
2018-07-25T04:39:13.009Z,8284
2018-07-25T04:40:13.006Z,8380
2018-07-25T04:41:12.926Z,8480
2018-07-25T04:42:12.996Z,8564
2018-07-25T04:43:13.009Z,8652
2018-07-25T04:44:12.961Z,8728
2018-07-25T04:45:12.934Z,8812
2018-07-25T04:46:13.089Z,8872
2018-07-25T04:47:12.939Z,8884
2018-07-25T04:48:13.004Z,8880
2018-07-25T04:49:12.932Z,8904
2018-07-25T04:50:12.904Z,8956
2018-07-25T04:51:12.934Z,9024
2018-07-25T04:52:12.936Z,9096
2018-07-25T04:53:12.935Z,9156
2018-07-25T04:54:13.008Z,9228
2018-07-25T04:55:12.967Z,9320
2018-07-25T04:56:13.014Z,9432
2018-07-25T04:57:13.008Z,9588
2018-07-25T04:58:12.944Z,9804
2018-07-25T04:59:12.998Z,10052
2018-07-25T05:00:12.950Z,10300
2018-07-25T05:01:13.029Z,10552
2018-07-25T05:02:12.944Z,10880
2018-07-25T05:03:13.018Z,11328
2018-07-25T05:04:13.016Z,11880
2018-07-25T05:05:12.943Z,12508
2018-07-25T05:06:13.015Z,13140
2018-07-25T05:07:13.054Z,13724
2018-07-25T05:08:12.958Z,14200
2018-07-25T05:09:13.020Z,14576
2018-07-25T05:10:12.952Z,14872
2018-07-25T05:11:13.055Z,15180
2018-07-25T05:12:12.964Z,15532
2018-07-25T05:13:12.956Z,15916
2018-07-25T05:14:13.022Z,16284
2018-07-25T05:15:13.005Z,16668
2018-07-25T05:16:12.924Z,16972
2018-07-25T05:17:12.920Z,17228
2018-07-25T05:18:13.018Z,17488
2018-07-25T05:19:13.013Z,17804
2018-07-25T05:20:12.904Z,18096
2018-07-25T05:21:12.969Z,18348
2018-07-25T05:22:12.908Z,18504
2018-07-25T05:23:13.032Z,18624
2018-07-25T05:24:13.030Z,18724
2018-07-25T05:25:12.959Z,18768
2018-07-25T05:26:12.974Z,18764
2018-07-25T05:27:13.031Z,18664
2018-07-25T05:28:12.968Z,18444
2018-07-25T05:29:12.977Z,18084
2018-07-25T05:30:13.033Z,17572
2018-07-25T05:31:12.965Z,16904
2018-07-25T05:32:12.970Z,16152
2018-07-25T05:33:13.034Z,15444
2018-07-25T05:34:13.033Z,14800
2018-07-25T05:35:12.966Z,14340
2018-07-25T05:36:13.037Z,14024
2018-07-25T05:37:13.035Z,13856
2018-07-25T05:38:13.081Z,13776
2018-07-25T05:39:12.970Z,13768
2018-07-25T05:40:12.931Z,13796
2018-07-25T05:41:12.994Z,13856
2018-07-25T05:42:12.972Z,13936
2018-07-25T05:43:13.046Z,14028
2018-07-25T05:44:12.976Z,14144
2018-07-25T05:45:13.000Z,14268
2018-07-25T05:46:13.069Z,14388
2018-07-25T05:47:13.137Z,14512
2018-07-25T05:48:13.082Z,14644
2018-07-25T05:49:13.016Z,14804
2018-07-25T05:50:13.078Z,17512
2018-07-25T05:51:13.070Z,32480
2018-07-25T05:52:13.059Z,42144
2018-07-25T05:53:12.948Z,44512
2018-07-25T05:54:12.999Z,46080
2018-07-25T05:55:13.048Z,47072
2018-07-25T05:56:12.978Z,48128
2018-07-25T05:57:12.953Z,48736
2018-07-25T05:58:12.954Z,49120
2018-07-25T05:59:13.032Z,50112
2018-07-25T06:00:12.959Z,51552
2018-07-25T06:01:12.955Z,53440
2018-07-25T06:02:12.921Z,54464
2018-07-25T06:03:13.107Z,54560
2018-07-25T06:04:13.058Z,54176
2018-07-25T06:05:12.994Z,53536
2018-07-25T06:06:13.167Z,52544
2018-07-25T06:07:12.989Z,52000
2018-07-25T06:08:13.065Z,52448
2018-07-25T06:09:12.992Z,54080
2018-07-25T06:10:12.990Z,55776
2018-07-25T06:11:13.058Z,57248
2018-07-25T06:12:13.058Z,57920
2018-07-25T06:13:13.092Z,57888
2018-07-25T06:14:13.014Z,57152
2018-07-25T06:15:12.999Z,56640
2018-07-25T06:16:13.078Z,56416
2018-07-25T06:17:13.032Z,56576
2018-07-25T06:18:12.970Z,57024
2018-07-25T06:19:13.087Z,57664
2018-07-25T06:20:13.038Z,58688
2018-07-25T06:21:13.120Z,60032
2018-07-25T06:22:13.097Z,60672
2018-07-25T06:23:13.047Z,60896
2018-07-25T06:24:12.987Z,61472
2018-07-25T06:25:13.040Z,61632
2018-07-25T06:26:13.041Z,61120
2018-07-25T06:27:12.997Z,61088
2018-07-25T06:28:13.057Z,61856
2018-07-25T06:29:12.978Z,62880
2018-07-25T06:30:13.034Z,64352
2018-07-25T06:31:13.037Z,65888
2018-07-25T06:32:13.048Z,67488
2018-07-25T06:33:13.036Z,68736
2018-07-25T06:34:13.117Z,69152
2018-07-25T06:35:13.056Z,68640
2018-07-25T06:36:12.998Z,67904
2018-07-25T06:37:13.035Z,67776
2018-07-25T06:38:13.004Z,67968
2018-07-25T06:39:12.939Z,68640
2018-07-25T06:40:13.007Z,69312
2018-07-25T06:41:13.067Z,69760
2018-07-25T06:42:13.032Z,70144
2018-07-25T06:43:13.018Z,70560
2018-07-25T06:44:12.971Z,70752
2018-07-25T06:45:13.079Z,70688
2018-07-25T06:46:13.082Z,70400
2018-07-25T06:47:13.018Z,70240
2018-07-25T06:48:13.018Z,70720
2018-07-25T06:49:13.120Z,72256
2018-07-25T06:50:13.021Z,74240
2018-07-25T06:51:13.108Z,76448
2018-07-25T06:52:13.088Z,78272
2018-07-25T06:53:13.143Z,78528
2018-07-25T06:54:13.087Z,76960
2018-07-25T06:55:13.110Z,75424
2018-07-25T06:56:13.127Z,74752
2018-07-25T06:57:13.117Z,75520
2018-07-25T06:58:13.091Z,78560
2018-07-25T06:59:13.028Z,82336
2018-07-25T07:00:13.094Z,85472
2018-07-25T07:01:13.093Z,87232
2018-07-25T07:02:13.092Z,88128
2018-07-25T07:03:13.093Z,87520
2018-07-25T07:04:13.096Z,84960
2018-07-25T07:05:13.031Z,81728
2018-07-25T07:06:13.096Z,78432
2018-07-25T07:07:13.040Z,75680
2018-07-25T07:08:13.095Z,74272
2018-07-25T07:09:13.066Z,76320
2018-07-25T07:10:13.102Z,80864
2018-07-25T07:11:13.038Z,85664
2018-07-25T07:12:13.171Z,88896
2018-07-25T07:13:13.046Z,88992
2018-07-25T07:14:13.158Z,88352
2018-07-25T07:15:13.114Z,87296
2018-07-25T07:16:13.041Z,86080
2018-07-25T07:17:13.095Z,85248
2018-07-25T07:18:13.104Z,85568
2018-07-25T07:19:13.129Z,86976
2018-07-25T07:20:13.045Z,89600
2018-07-25T07:21:13.114Z,92992
2018-07-25T07:22:13.038Z,96256
2018-07-25T07:23:12.983Z,98688
2018-07-25T07:24:13.045Z,99424
2018-07-25T07:25:12.985Z,97568
2018-07-25T07:26:13.044Z,93152
2018-07-25T07:27:13.043Z,89376
2018-07-25T07:28:13.000Z,86400
2018-07-25T07:29:13.019Z,84928
2018-07-25T07:30:13.060Z,85728
2018-07-25T07:31:13.020Z,88480
2018-07-25T07:32:13.065Z,92000
2018-07-25T07:33:13.023Z,96672
2018-07-25T07:34:13.066Z,101504
2018-07-25T07:35:13.178Z,105248
2018-07-25T07:36:13.132Z,107584
2018-07-25T07:37:13.067Z,108032
2018-07-25T07:38:13.056Z,105728
2018-07-25T07:39:13.114Z,102400
2018-07-25T07:40:13.142Z,99264
2018-07-25T07:41:13.195Z,96640
2018-07-25T07:42:13.055Z,95520
2018-07-25T07:43:13.153Z,95392
2018-07-25T07:44:13.107Z,95968
2018-07-25T07:45:13.033Z,97440
2018-07-25T07:46:12.997Z,98624
2018-07-25T07:47:12.994Z,101312
2018-07-25T07:48:12.997Z,104416
2018-07-25T07:49:13.112Z,106624
2018-07-25T07:50:13.020Z,108640
2018-07-25T07:51:13.054Z,109568
2018-07-25T07:52:13.079Z,109184
2018-07-25T07:53:13.059Z,107520
2018-07-25T07:54:12.989Z,105440
2018-07-25T07:55:13.018Z,103808
2018-07-25T07:56:13.163Z,103360
2018-07-25T07:57:13.153Z,104256
2018-07-25T07:58:13.132Z,105888
2018-07-25T07:59:13.038Z,108416
2018-07-25T08:00:13.072Z,110912
2018-07-25T08:01:13.103Z,111936
2018-07-25T08:02:13.120Z,112448
2018-07-25T08:03:13.118Z,111456
2018-07-25T08:04:13.105Z,109568
2018-07-25T08:05:13.113Z,108416
2018-07-25T08:06:13.136Z,108096
2018-07-25T08:07:13.092Z,108960
2018-07-25T08:08:13.179Z,110784
2018-07-25T08:09:13.112Z,113888
2018-07-25T08:10:13.041Z,118208
2018-07-25T08:11:13.067Z,121472
2018-07-25T08:12:13.166Z,122400
2018-07-25T08:13:13.122Z,120800
2018-07-25T08:14:13.173Z,117248
2018-07-25T08:15:13.104Z,112544
2018-07-25T08:16:13.098Z,109536
2018-07-25T08:17:13.161Z,107968
2018-07-25T08:18:13.187Z,108704
2018-07-25T08:19:13.152Z,111200
2018-07-25T08:20:13.104Z,114464
2018-07-25T08:21:13.282Z,117632
2018-07-25T08:22:13.130Z,120032
2018-07-25T08:23:13.169Z,122048
2018-07-25T08:24:13.151Z,123296
2018-07-25T08:25:13.173Z,123264
2018-07-25T08:26:13.062Z,124320
2018-07-25T08:27:13.139Z,124736
2018-07-25T08:28:13.107Z,122752
2018-07-25T08:29:13.062Z,119456
2018-07-25T08:30:13.021Z,117472
2018-07-25T08:31:13.147Z,116032
2018-07-25T08:32:13.103Z,116448
2018-07-25T08:33:13.033Z,116800
2018-07-25T08:34:13.065Z,118624
2018-07-25T08:35:13.145Z,120288
2018-07-25T08:36:13.111Z,122080
2018-07-25T08:37:13.091Z,123680
2018-07-25T08:38:13.091Z,126336
2018-07-25T08:39:13.032Z,127360
2018-07-25T08:40:13.097Z,127392
2018-07-25T08:41:13.048Z,127904
2018-07-25T08:42:13.094Z,128608
2018-07-25T08:43:13.031Z,128960
2018-07-25T08:44:13.031Z,127200
2018-07-25T08:45:13.162Z,124896
2018-07-25T08:46:13.102Z,124064
2018-07-25T08:47:13.133Z,122688
2018-07-25T08:48:13.168Z,104672
2018-07-25T08:49:13.104Z,116224
2018-07-25T08:50:13.170Z,119104
2018-07-25T08:51:13.117Z,129536
2018-07-25T08:52:13.171Z,132896
2018-07-25T08:53:13.117Z,135584
2018-07-25T08:54:13.172Z,137760
2018-07-25T08:55:13.106Z,139104
2018-07-25T08:56:13.134Z,138208
2018-07-25T08:57:13.138Z,135424
2018-07-25T08:58:13.134Z,113568
2018-07-25T08:59:13.132Z,107232
2018-07-25T09:00:13.199Z,133120
2018-07-25T09:01:13.134Z,134112
2018-07-25T09:02:13.178Z,132608
2018-07-25T09:03:13.114Z,133984
2018-07-25T09:04:13.155Z,136352
2018-07-25T09:05:13.112Z,137696
2018-07-25T09:06:13.257Z,140320
2018-07-25T09:07:13.181Z,142496
2018-07-25T09:08:13.211Z,142560
2018-07-25T09:09:13.183Z,142080
2018-07-25T09:10:13.085Z,141312
2018-07-25T09:11:13.200Z,141952
2018-07-25T09:12:13.154Z,142048
2018-07-25T09:13:13.225Z,140672
2018-07-25T09:14:13.139Z,136832
2018-07-25T09:15:13.154Z,134464
2018-07-25T09:16:13.202Z,136096
2018-07-25T09:17:13.174Z,141184
2018-07-25T09:18:13.210Z,146624
2018-07-25T09:19:13.119Z,149696
2018-07-25T09:20:13.188Z,150464
2018-07-25T09:21:13.123Z,147936
2018-07-25T09:22:13.188Z,143520
2018-07-25T09:23:13.125Z,137344
2018-07-25T09:24:13.192Z,130976
2018-07-25T09:25:13.189Z,126240
2018-07-25T09:26:13.196Z,126944
2018-07-25T09:27:13.121Z,130016
2018-07-25T09:28:13.191Z,134784
2018-07-25T09:29:13.129Z,139936
2018-07-25T09:30:13.129Z,141984
2018-07-25T09:31:13.193Z,140160
2018-07-25T09:32:13.131Z,135904
2018-07-25T09:33:13.196Z,133568
2018-07-25T09:34:13.361Z,131968
2018-07-25T09:35:13.199Z,133088
2018-07-25T09:36:13.149Z,136480
2018-07-25T09:37:13.104Z,140800
2018-07-25T09:38:13.146Z,143808
2018-07-25T09:39:13.099Z,146496
2018-07-25T09:40:13.059Z,148800
2018-07-25T09:41:13.153Z,150272
2018-07-25T09:42:13.147Z,149376
2018-07-25T09:43:13.108Z,148128
2018-07-25T09:44:13.104Z,146880
2018-07-25T09:45:13.067Z,147520
2018-07-25T09:46:13.166Z,148704
2018-07-25T09:47:13.231Z,149344
2018-07-25T09:48:13.240Z,149216
2018-07-25T09:49:13.147Z,148736
2018-07-25T09:50:13.117Z,148832
2018-07-25T09:51:13.175Z,149792
2018-07-25T09:52:13.238Z,150464
2018-07-25T09:53:13.195Z,151232
2018-07-25T09:54:13.147Z,152896
2018-07-25T09:55:13.179Z,154784
2018-07-25T09:56:13.264Z,157920
2018-07-25T09:57:13.250Z,161472
2018-07-25T09:58:13.247Z,163584
2018-07-25T09:59:13.206Z,163840
2018-07-25T10:00:13.114Z,163040
2018-07-25T10:01:13.216Z,161280
2018-07-25T10:02:13.185Z,157696
2018-07-25T10:03:13.217Z,154240
2018-07-25T10:04:13.250Z,154656
2018-07-25T10:05:13.157Z,157472
2018-07-25T10:06:13.183Z,160032
2018-07-25T10:07:13.356Z,162592
2018-07-25T10:08:13.196Z,166496
2018-07-25T10:09:13.169Z,170592
2018-07-25T10:10:13.248Z,171616
2018-07-25T10:11:13.156Z,169952
2018-07-25T10:12:13.197Z,169152
2018-07-25T10:13:13.144Z,138048
2018-07-25T10:14:13.260Z,155616
2018-07-25T10:15:13.313Z,158656
2018-07-25T10:16:13.273Z,162016
2018-07-25T10:17:13.184Z,163264
2018-07-25T10:18:13.171Z,174368
2018-07-25T10:19:13.159Z,184768
2018-07-25T10:20:13.226Z,188256
2018-07-25T10:21:13.196Z,173472
2018-07-25T10:22:13.150Z,124544
2018-07-25T10:23:13.213Z,151776
2018-07-25T10:24:13.196Z,183808
2018-07-25T10:25:13.157Z,158912
2018-07-25T10:26:13.265Z,140704
2018-07-25T10:27:13.218Z,142784
2018-07-25T10:28:13.213Z,182784
2018-07-25T10:29:13.234Z,194432
2018-07-25T10:30:13.260Z,168736
2018-07-25T10:31:13.258Z,134752
2018-07-25T10:32:13.242Z,108512
2018-07-25T10:33:13.230Z,161888
2018-07-25T10:34:13.142Z,159264
2018-07-25T10:35:13.249Z,154688
2018-07-25T10:36:13.178Z,98720
2018-07-25T10:37:13.265Z,78400
2018-07-25T10:38:13.242Z,114400
2018-07-25T10:39:13.175Z,105120
2018-07-25T10:40:13.243Z,59200
2018-07-25T10:41:13.209Z,56064
2018-07-25T10:42:13.245Z,107360
2018-07-25T10:43:13.183Z,56352
2018-07-25T10:44:13.178Z,54944
2018-07-25T10:45:13.247Z,58144
2018-07-25T10:46:13.168Z,56224
2018-07-25T10:47:13.285Z,53472
2018-07-25T10:48:13.207Z,51968
2018-07-25T10:49:13.277Z,50944
2018-07-25T10:50:13.385Z,51200
2018-07-25T10:51:13.231Z,52512
2018-07-25T10:52:13.214Z,55552
2018-07-25T10:53:13.253Z,56096
2018-07-25T10:54:13.220Z,55584
2018-07-25T10:55:13.282Z,56352
2018-07-25T10:56:13.305Z,56992
2018-07-25T10:57:13.154Z,58144
2018-07-25T10:58:13.211Z,60896
2018-07-25T10:59:13.294Z,62176
2018-07-25T11:00:13.278Z,68192
2018-07-25T11:01:13.219Z,67584
2018-07-25T11:02:13.340Z,63552
2018-07-25T11:03:13.241Z,94688
2018-07-25T11:04:13.253Z,164032
2018-07-25T11:05:13.293Z,148800
2018-07-25T11:06:13.195Z,164320
2018-07-25T11:07:13.162Z,165856
2018-07-25T11:08:13.199Z,168128
2018-07-25T11:09:13.268Z,171904
2018-07-25T11:10:13.203Z,173152
2018-07-25T11:11:13.263Z,171904
2018-07-25T11:12:13.265Z,169152
2018-07-25T11:13:13.200Z,168160
2018-07-25T11:14:13.268Z,166528
2018-07-25T11:15:13.275Z,165696
2018-07-25T11:16:13.235Z,165280
2018-07-25T11:17:13.225Z,163968
2018-07-25T11:18:13.303Z,161792
2018-07-25T11:19:13.288Z,159872
2018-07-25T11:20:13.267Z,156128
2018-07-25T11:21:13.303Z,154496
2018-07-25T11:22:13.227Z,155264
2018-07-25T11:23:13.391Z,156992
2018-07-25T11:24:13.316Z,159936
2018-07-25T11:25:13.231Z,162176
2018-07-25T11:26:13.232Z,163520
2018-07-25T11:27:13.249Z,163808
2018-07-25T11:28:13.200Z,162496
2018-07-25T11:29:13.256Z,159104
2018-07-25T11:30:13.227Z,157664
2018-07-25T11:31:13.174Z,158528
2018-07-25T11:32:13.207Z,160448
2018-07-25T11:33:13.216Z,163648
2018-07-25T11:34:13.169Z,166720
2018-07-25T11:35:13.214Z,165952
2018-07-25T11:36:13.156Z,164672
2018-07-25T11:37:13.153Z,161408
2018-07-25T11:38:13.275Z,159872
2018-07-25T11:39:13.182Z,160832
2018-07-25T11:40:13.205Z,160288
2018-07-25T11:41:13.217Z,159264
2018-07-25T11:42:13.244Z,158528
2018-07-25T11:43:13.195Z,156512
2018-07-25T11:44:13.221Z,154272
2018-07-25T11:45:13.156Z,155456
2018-07-25T11:46:13.325Z,157792
2018-07-25T11:47:13.259Z,161568
2018-07-25T11:48:13.290Z,163872
2018-07-25T11:49:13.231Z,166528
2018-07-25T11:50:13.211Z,170880
2018-07-25T11:51:13.324Z,173696
2018-07-25T11:52:13.270Z,175392
2018-07-25T11:53:13.244Z,174368
2018-07-25T11:54:13.299Z,162400
2018-07-25T11:55:13.235Z,171936
2018-07-25T11:56:13.221Z,172288
2018-07-25T11:57:13.264Z,170176
2018-07-25T11:58:13.254Z,168416
2018-07-25T11:59:13.220Z,170304
2018-07-25T12:00:13.319Z,173312
2018-07-25T12:01:13.531Z,176832
2018-07-25T12:02:13.335Z,176480
2018-07-25T12:03:13.265Z,175072
2018-07-25T12:04:13.270Z,171616
2018-07-25T12:05:13.271Z,166688
2018-07-25T12:06:13.266Z,164832
2018-07-25T12:07:13.330Z,164992
2018-07-25T12:08:13.209Z,167552
2018-07-25T12:09:13.266Z,170272
2018-07-25T12:10:13.344Z,170592
2018-07-25T12:11:13.268Z,170240
2018-07-25T12:12:13.228Z,167744
2018-07-25T12:13:13.345Z,165632
2018-07-25T12:14:13.262Z,164384
2018-07-25T12:15:13.329Z,165536
2018-07-25T12:16:13.310Z,167904
2018-07-25T12:17:13.241Z,169632
2018-07-25T12:18:13.313Z,171616
2018-07-25T12:19:13.280Z,171776
2018-07-25T12:20:13.244Z,172160
2018-07-25T12:21:13.274Z,171392
2018-07-25T12:22:13.247Z,169312
2018-07-25T12:23:13.312Z,167328
2018-07-25T12:24:13.253Z,166400
2018-07-25T12:25:13.314Z,168128
2018-07-25T12:26:13.318Z,168416
2018-07-25T12:27:13.350Z,172384
2018-07-25T12:28:13.336Z,174560
2018-07-25T12:29:13.350Z,177568
2018-07-25T12:30:13.351Z,179584
2018-07-25T12:31:13.278Z,181632
2018-07-25T12:32:13.323Z,180384
2018-07-25T12:33:13.342Z,178624
2018-07-25T12:34:13.224Z,176736
2018-07-25T12:35:13.325Z,176160
2018-07-25T12:36:13.282Z,175424
2018-07-25T12:37:13.305Z,175808
2018-07-25T12:38:13.355Z,177760
2018-07-25T12:39:13.358Z,180160
2018-07-25T12:40:13.282Z,182176
2018-07-25T12:41:13.326Z,182560
2018-07-25T12:42:13.283Z,181248
2018-07-25T12:43:13.307Z,178400
2018-07-25T12:44:13.290Z,121664
2018-07-25T12:45:13.328Z,77216
2018-07-25T12:46:13.352Z,87808
2018-07-25T12:47:13.357Z,145152
2018-07-25T12:48:13.319Z,185440
2018-07-25T12:49:13.362Z,185152
2018-07-25T12:50:13.387Z,184160
2018-07-25T12:51:13.330Z,181952
2018-07-25T12:52:13.293Z,181760
2018-07-25T12:53:13.331Z,149792
2018-07-25T12:54:13.359Z,178720
2018-07-25T12:55:13.340Z,178336
2018-07-25T12:56:13.268Z,170496
2018-07-25T12:57:13.310Z,170976
2018-07-25T12:58:13.270Z,185120
2018-07-25T12:59:13.335Z,174208
2018-07-25T13:00:13.280Z,144448
2018-07-25T13:01:13.276Z,152096
2018-07-25T13:02:13.344Z,163872
2018-07-25T13:03:13.279Z,152512
2018-07-25T13:04:13.343Z,161088
2018-07-25T13:05:13.349Z,101024
2018-07-25T13:06:13.302Z,124608
2018-07-25T13:07:13.251Z,109632
2018-07-25T13:08:13.371Z,150464
2018-07-25T13:09:13.452Z,147072
2018-07-25T13:10:13.359Z,111552
2018-07-25T13:11:13.307Z,130336